sensor_id;sensor_type;location;lat;lon;timestamp;pressure;altitude;pressure_sealevel;temperature;humidity
10476;BME280;26166;48.264;11.436;2022-07-22T00:02:32;96553.78;;;23.65;54.60
10476;BME280;26166;48.264;11.436;2022-07-22T00:05:32;96559.16;;;23.65;54.54
10476;BME280;26166;48.264;11.436;2022-07-22T00:08:32;96545.94;;;23.63;54.52
10476;BME280;26166;48.264;11.436;2022-07-22T00:11:32;96546.72;;;23.64;54.73
10476;BME280;26166;48.264;11.436;2022-07-22T00:14:33;96545.94;;;23.63;54.78
10476;BME280;26166;48.264;11.436;2022-07-22T00:17:33;96546.19;;;23.62;54.89
10476;BME280;26166;48.264;11.436;2022-07-22T00:20:33;96541.63;;;23.62;54.68
10476;BME280;26166;48.264;11.436;2022-07-22T00:23:34;96543.50;;;23.62;54.74
10476;BME280;26166;48.264;11.436;2022-07-22T00:26:34;96541.63;;;23.62;54.91
10476;BME280;26166;48.264;11.436;2022-07-22T00:29:34;96542.69;;;23.61;54.72
10476;BME280;26166;48.264;11.436;2022-07-22T00:32:34;96533.84;;;23.61;54.87
10476;BME280;26166;48.264;11.436;2022-07-22T00:35:35;96537.31;;;23.61;54.59
10476;BME280;26166;48.264;11.436;2022-07-22T00:38:35;96533.84;;;23.61;54.89
10476;BME280;26166;48.264;11.436;2022-07-22T00:41:35;96532.78;;;23.62;54.91
10476;BME280;26166;48.264;11.436;2022-07-22T00:44:35;96532.78;;;23.62;54.86
10476;BME280;26166;48.264;11.436;2022-07-22T00:47:36;96525.78;;;23.61;54.47
10476;BME280;26166;48.264;11.436;2022-07-22T00:50:36;96529.28;;;23.61;54.75
10476;BME280;26166;48.264;11.436;2022-07-22T00:53:36;96529.53;;;23.60;54.66
10476;BME280;26166;48.264;11.436;2022-07-22T00:56:37;96530.34;;;23.60;54.79
10476;BME280;26166;48.264;11.436;2022-07-22T00:59:38;96530.34;;;23.60;54.80
10476;BME280;26166;48.264;11.436;2022-07-22T01:02:38;96527.66;;;23.60;54.56
10476;BME280;26166;48.264;11.436;2022-07-22T01:05:38;96523.31;;;23.59;54.89
10476;BME280;26166;48.264;11.436;2022-07-22T01:08:39;96522.53;;;23.59;54.86
10476;BME280;26166;48.264;11.436;2022-07-22T01:11:40;96519.84;;;23.59;54.62
10476;BME280;26166;48.264;11.436;2022-07-22T01:14:40;96522.53;;;23.59;54.87
10476;BME280;26166;48.264;11.436;2022-07-22T01:17:40;96522.53;;;23.59;54.82
10476;BME280;26166;48.264;11.436;2022-07-22T01:20:42;96515.53;;;23.58;54.67
10476;BME280;26166;48.264;11.436;2022-07-22T01:23:46;96516.34;;;23.58;54.62
10476;BME280;26166;48.264;11.436;2022-07-22T01:26:47;96516.34;;;23.58;54.81
10476;BME280;26166;48.264;11.436;2022-07-22T01:29:47;96518.22;;;23.58;54.86
10476;BME280;26166;48.264;11.436;2022-07-22T01:32:48;96516.34;;;23.58;54.83
10476;BME280;26166;48.264;11.436;2022-07-22T01:35:48;96517.41;;;23.57;54.96
10476;BME280;26166;48.264;11.436;2022-07-22T01:38:49;96525.44;;;23.57;54.73
10476;BME280;26166;48.264;11.436;2022-07-22T01:41:49;96523.59;;;23.58;54.76
10476;BME280;26166;48.264;11.436;2022-07-22T01:44:49;96520.09;;;23.57;54.88
10476;BME280;26166;48.264;11.436;2022-07-22T01:47:49;96516.59;;;23.57;54.97
10476;BME280;26166;48.264;11.436;2022-07-22T01:50:50;96518.47;;;23.56;54.83
10476;BME280;26166;48.264;11.436;2022-07-22T01:53:50;96515.78;;;23.56;54.87
10476;BME280;26166;48.264;11.436;2022-07-22T01:56:50;96511.50;;;23.55;55.00
10476;BME280;26166;48.264;11.436;2022-07-22T01:59:50;96516.84;;;23.55;54.87
10476;BME280;26166;48.264;11.436;2022-07-22T02:02:51;96505.28;;;23.55;54.63
10476;BME280;26166;48.264;11.436;2022-07-22T02:05:51;96517.66;;;23.56;54.64
10476;BME280;26166;48.264;11.436;2022-07-22T02:08:51;96513.34;;;23.55;54.75
10476;BME280;26166;48.264;11.436;2022-07-22T02:11:51;96509.84;;;23.54;54.69
10476;BME280;26166;48.264;11.436;2022-07-22T02:14:52;96514.19;;;23.55;54.96
10476;BME280;26166;48.264;11.436;2022-07-22T02:17:52;96509.84;;;23.54;54.66
10476;BME280;26166;48.264;11.436;2022-07-22T02:20:53;96516.00;;;23.55;54.78
10476;BME280;26166;48.264;11.436;2022-07-22T02:23:53;96505.28;;;23.55;54.61
10476;BME280;26166;48.264;11.436;2022-07-22T02:26:53;96501.56;;;23.56;54.66
10476;BME280;26166;48.264;11.436;2022-07-22T02:29:53;96509.84;;;23.54;54.58
10476;BME280;26166;48.264;11.436;2022-07-22T02:32:54;96507.97;;;23.55;54.69
10476;BME280;26166;48.264;11.436;2022-07-22T02:35:54;96510.66;;;23.55;54.76
10476;BME280;26166;48.264;11.436;2022-07-22T02:38:54;96506.13;;;23.55;54.68
10476;BME280;26166;48.264;11.436;2022-07-22T02:41:54;96505.28;;;23.55;54.74
10476;BME280;26166;48.264;11.436;2022-07-22T02:44:54;96499.94;;;23.55;54.90
10476;BME280;26166;48.264;11.436;2022-07-22T02:47:55;96505.28;;;23.55;54.67
10476;BME280;26166;48.264;11.436;2022-07-22T02:50:55;96501.56;;;23.56;54.57
10476;BME280;26166;48.264;11.436;2022-07-22T02:53:56;96502.59;;;23.55;54.81
10476;BME280;26166;48.264;11.436;2022-07-22T02:56:56;96505.28;;;23.55;54.70
10476;BME280;26166;48.264;11.436;2022-07-22T02:59:56;96500.78;;;23.55;54.86
10476;BME280;26166;48.264;11.436;2022-07-22T03:02:56;96505.88;;;23.57;54.58
10476;BME280;26166;48.264;11.436;2022-07-22T03:05:56;96505.06;;;23.56;54.48
10476;BME280;26166;48.264;11.436;2022-07-22T03:08:57;96500.50;;;23.57;54.54
10476;BME280;26166;48.264;11.436;2022-07-22T03:11:57;96499.69;;;23.56;54.59
10476;BME280;26166;48.264;11.436;2022-07-22T03:14:57;96504.00;;;23.57;54.48
10476;BME280;26166;48.264;11.436;2022-07-22T03:17:58;96512.06;;;23.57;54.48
10476;BME280;26166;48.264;11.436;2022-07-22T03:20:58;96511.25;;;23.57;54.49
10476;BME280;26166;48.264;11.436;2022-07-22T03:23:58;96504.25;;;23.56;54.32
10476;BME280;26166;48.264;11.436;2022-07-22T03:26:58;96509.63;;;23.56;54.67
10476;BME280;26166;48.264;11.436;2022-07-22T03:29:59;96510.44;;;23.56;54.71
10476;BME280;26166;48.264;11.436;2022-07-22T03:32:59;96510.44;;;23.56;54.33
10476;BME280;26166;48.264;11.436;2022-07-22T03:35:59;96508.81;;;23.55;54.53
10476;BME280;26166;48.264;11.436;2022-07-22T03:39:00;96506.13;;;23.55;54.48
10476;BME280;26166;48.264;11.436;2022-07-22T03:42:00;96512.31;;;23.56;54.33
10476;BME280;26166;48.264;11.436;2022-07-22T03:45:00;96506.94;;;23.56;54.36
10476;BME280;26166;48.264;11.436;2022-07-22T03:48:00;96510.44;;;23.56;54.28
10476;BME280;26166;48.264;11.436;2022-07-22T03:51:00;96507.75;;;23.56;54.47
10476;BME280;26166;48.264;11.436;2022-07-22T03:54:00;96508.56;;;23.57;54.47
10476;BME280;26166;48.264;11.436;2022-07-22T03:57:01;96506.94;;;23.56;54.61
10476;BME280;26166;48.264;11.436;2022-07-22T04:00:01;96503.19;;;23.57;54.36
10476;BME280;26166;48.264;11.436;2022-07-22T04:03:01;96506.94;;;23.56;54.47
10476;BME280;26166;48.264;11.436;2022-07-22T04:06:01;96512.31;;;23.56;54.45
10476;BME280;26166;48.264;11.436;2022-07-22T04:09:02;96502.38;;;23.56;54.27
10476;BME280;26166;48.264;11.436;2022-07-22T04:12:02;96498.09;;;23.55;54.49
10476;BME280;26166;48.264;11.436;2022-07-22T04:15:03;96501.56;;;23.56;54.19
10476;BME280;26166;48.264;11.436;2022-07-22T04:18:04;96495.41;;;23.55;54.33
10476;BME280;26166;48.264;11.436;2022-07-22T04:21:04;96503.44;;;23.55;54.34
10476;BME280;26166;48.264;11.436;2022-07-22T04:24:04;96499.94;;;23.55;54.20
10476;BME280;26166;48.264;11.436;2022-07-22T04:27:05;96494.56;;;23.55;54.28
10476;BME280;26166;48.264;11.436;2022-07-22T04:30:05;96495.41;;;23.55;54.41
10476;BME280;26166;48.264;11.436;2022-07-22T04:33:06;96496.44;;;23.54;54.47
10476;BME280;26166;48.264;11.436;2022-07-22T04:36:06;96500.78;;;23.55;54.37
10476;BME280;26166;48.264;11.436;2022-07-22T04:39:06;96502.59;;;23.55;54.39
10476;BME280;26166;48.264;11.436;2022-07-22T04:42:07;96506.13;;;23.55;54.10
10476;BME280;26166;48.264;11.436;2022-07-22T04:45:07;96504.47;;;23.54;54.11
10476;BME280;26166;48.264;11.436;2022-07-22T04:48:07;96509.03;;;23.54;54.48
10476;BME280;26166;48.264;11.436;2022-07-22T04:51:08;96511.97;;;23.52;54.36
10476;BME280;26166;48.264;11.436;2022-07-22T04:54:08;96513.84;;;23.52;53.95
10476;BME280;26166;48.264;11.436;2022-07-22T04:57:08;96515.72;;;23.51;54.15
10476;BME280;26166;48.264;11.436;2022-07-22T05:00:08;96510.34;;;23.51;53.99
10476;BME280;26166;48.264;11.436;2022-07-22T05:03:09;96517.34;;;23.52;54.16
10476;BME280;26166;48.264;11.436;2022-07-22T05:06:09;96512.22;;;23.51;53.99
10476;BME280;26166;48.264;11.436;2022-07-22T05:09:10;96516.53;;;23.52;53.96
10476;BME280;26166;48.264;11.436;2022-07-22T05:12:10;96525.63;;;23.51;54.03
10476;BME280;26166;48.264;11.436;2022-07-22T05:15:10;96514.06;;;23.50;53.94
10476;BME280;26166;48.264;11.436;2022-07-22T05:18:10;96515.94;;;23.50;54.23
10476;BME280;26166;48.264;11.436;2022-07-22T05:21:11;96514.91;;;23.51;54.55
10476;BME280;26166;48.264;11.436;2022-07-22T05:24:11;96514.91;;;23.51;54.88
10476;BME280;26166;48.264;11.436;2022-07-22T05:27:11;96509.53;;;23.51;54.83
10476;BME280;26166;48.264;11.436;2022-07-22T05:30:12;96504.19;;;23.51;54.65
10476;BME280;26166;48.264;11.436;2022-07-22T05:33:12;96512.22;;;23.51;54.43
10476;BME280;26166;48.264;11.436;2022-07-22T05:36:12;96509.53;;;23.51;54.42
10476;BME280;26166;48.264;11.436;2022-07-22T05:39:12;96505.00;;;23.51;54.54
10476;BME280;26166;48.264;11.436;2022-07-22T05:42:13;96509.53;;;23.51;54.89
10476;BME280;26166;48.264;11.436;2022-07-22T05:45:13;96509.75;;;23.49;55.01
10476;BME280;26166;48.264;11.436;2022-07-22T05:48:13;96506.28;;;23.49;55.01
10476;BME280;26166;48.264;11.436;2022-07-22T05:51:13;96500.91;;;23.49;55.07
10476;BME280;26166;48.264;11.436;2022-07-22T05:54:14;96504.66;;;23.48;55.65
10476;BME280;26166;48.264;11.436;2022-07-22T05:57:14;96506.28;;;23.49;55.45
10476;BME280;26166;48.264;11.436;2022-07-22T06:00:14;96510.00;;;23.48;55.56
10476;BME280;26166;48.264;11.436;2022-07-22T06:03:14;96504.66;;;23.48;55.83
10476;BME280;26166;48.264;11.436;2022-07-22T06:06:15;96498.47;;;23.47;55.87
10476;BME280;26166;48.264;11.436;2022-07-22T06:09:15;96496.63;;;23.48;56.07
10476;BME280;26166;48.264;11.436;2022-07-22T06:12:15;96504.66;;;23.48;55.84
10476;BME280;26166;48.264;11.436;2022-07-22T06:15:15;96500.91;;;23.49;56.17
10476;BME280;26166;48.264;11.436;2022-07-22T06:18:15;96499.28;;;23.48;56.25
10476;BME280;26166;48.264;11.436;2022-07-22T06:21:16;96508.94;;;23.49;56.26
10476;BME280;26166;48.264;11.436;2022-07-22T06:24:16;96500.91;;;23.49;56.55
10476;BME280;26166;48.264;11.436;2022-07-22T06:27:16;96500.91;;;23.49;56.62
10476;BME280;26166;48.264;11.436;2022-07-22T06:30:16;96506.84;;;23.51;56.63
10476;BME280;26166;48.264;11.436;2022-07-22T06:33:17;96507.88;;;23.50;56.28
10476;BME280;26166;48.264;11.436;2022-07-22T06:36:17;96506.03;;;23.50;56.63
10476;BME280;26166;48.264;11.436;2022-07-22T06:39:17;96499.84;;;23.50;56.48
10476;BME280;26166;48.264;11.436;2022-07-22T06:42:18;96500.91;;;23.49;56.25
10476;BME280;26166;48.264;11.436;2022-07-22T06:45:18;96492.88;;;23.49;56.62
10476;BME280;26166;48.264;11.436;2022-07-22T06:48:18;96502.53;;;23.50;56.20
10476;BME280;26166;48.264;11.436;2022-07-22T06:51:18;96496.34;;;23.49;56.39
10476;BME280;26166;48.264;11.436;2022-07-22T06:54:19;96495.53;;;23.49;56.22
10476;BME280;26166;48.264;11.436;2022-07-22T06:57:19;96491.81;;;23.50;56.26
10476;BME280;26166;48.264;11.436;2022-07-22T07:00:19;96494.50;;;23.50;56.17
10476;BME280;26166;48.264;11.436;2022-07-22T07:03:19;96501.72;;;23.49;56.00
10476;BME280;26166;48.264;11.436;2022-07-22T07:06:21;96502.53;;;23.50;56.05
10476;BME280;26166;48.264;11.436;2022-07-22T07:09:22;96490.78;;;23.51;56.16
10476;BME280;26166;48.264;11.436;2022-07-22T07:12:22;96488.09;;;23.51;55.94
10476;BME280;26166;48.264;11.436;2022-07-22T07:15:22;96490.78;;;23.51;56.00
10476;BME280;26166;48.264;11.436;2022-07-22T07:18:22;96486.22;;;23.51;55.96
10476;BME280;26166;48.264;11.436;2022-07-22T07:21:23;96491.81;;;23.50;55.82
10476;BME280;26166;48.264;11.436;2022-07-22T07:24:23;96492.38;;;23.52;55.83
10476;BME280;26166;48.264;11.436;2022-07-22T07:27:23;96484.56;;;23.50;55.86
10476;BME280;26166;48.264;11.436;2022-07-22T07:30:24;96493.47;;;23.51;55.85
10476;BME280;26166;48.264;11.436;2022-07-22T07:33:25;96484.81;;;23.49;55.77
10476;BME280;26166;48.264;11.436;2022-07-22T07:36:25;96486.44;;;23.50;55.76
10476;BME280;26166;48.264;11.436;2022-07-22T07:39:25;96484.56;;;23.50;55.78
10476;BME280;26166;48.264;11.436;2022-07-22T07:42:27;96486.44;;;23.50;55.60
10476;BME280;26166;48.264;11.436;2022-07-22T07:45:27;96486.44;;;23.50;55.49
10476;BME280;26166;48.264;11.436;2022-07-22T07:48:27;96484.81;;;23.49;55.78
10476;BME280;26166;48.264;11.436;2022-07-22T07:51:27;96487.25;;;23.50;55.78
10476;BME280;26166;48.264;11.436;2022-07-22T07:54:27;96481.09;;;23.50;55.49
10476;BME280;26166;48.264;11.436;2022-07-22T07:57:28;96482.72;;;23.51;55.45
10476;BME280;26166;48.264;11.436;2022-07-22T08:00:28;96466.66;;;23.51;55.45
10476;BME280;26166;48.264;11.436;2022-07-22T08:03:30;96465.81;;;23.50;55.55
10476;BME280;26166;48.264;11.436;2022-07-22T08:06:30;96469.31;;;23.51;55.34
10476;BME280;26166;48.264;11.436;2022-07-22T08:09:30;96467.69;;;23.50;55.56
10476;BME280;26166;48.264;11.436;2022-07-22T08:12:30;96463.97;;;23.51;55.53
10476;BME280;26166;48.264;11.436;2022-07-22T08:15:31;96473.03;;;23.50;55.56
10476;BME280;26166;48.264;11.436;2022-07-22T08:18:31;96470.34;;;23.50;55.65
10476;BME280;26166;48.264;11.436;2022-07-22T08:21:31;96460.44;;;23.50;55.48
10476;BME280;26166;48.264;11.436;2022-07-22T08:24:32;96460.44;;;23.50;55.41
10476;BME280;26166;48.264;11.436;2022-07-22T08:27:33;96464.19;;;23.49;55.27
10476;BME280;26166;48.264;11.436;2022-07-22T08:30:33;96461.50;;;23.49;55.44
10476;BME280;26166;48.264;11.436;2022-07-22T08:33:33;96459.63;;;23.50;55.62
10476;BME280;26166;48.264;11.436;2022-07-22T08:36:34;96459.63;;;23.50;55.60
10476;BME280;26166;48.264;11.436;2022-07-22T08:39:35;96459.41;;;23.51;55.64
10476;BME280;26166;48.264;11.436;2022-07-22T08:42:39;96460.78;;;23.54;55.61
10476;BME280;26166;48.264;11.436;2022-07-22T08:45:40;96456.47;;;23.53;55.56
10476;BME280;26166;48.264;11.436;2022-07-22T08:48:40;96443.06;;;23.53;55.47
10476;BME280;26166;48.264;11.436;2022-07-22T08:51:40;96453.53;;;23.54;55.63
10476;BME280;26166;48.264;11.436;2022-07-22T08:54:40;96444.69;;;23.54;55.29
10476;BME280;26166;48.264;11.436;2022-07-22T08:57:44;96442.00;;;23.54;55.30
10476;BME280;26166;48.264;11.436;2022-07-22T09:00:45;96439.59;;;23.52;55.42
10476;BME280;26166;48.264;11.436;2022-07-22T09:03:50;96443.06;;;23.53;55.33
10476;BME280;26166;48.264;11.436;2022-07-22T09:06:51;96430.72;;;23.52;55.29
10476;BME280;26166;48.264;11.436;2022-07-22T09:09:51;96429.91;;;23.51;55.39
10476;BME280;26166;48.264;11.436;2022-07-22T09:12:58;96431.78;;;23.51;55.42
10476;BME280;26166;48.264;11.436;2022-07-22T09:15:59;96426.44;;;23.51;55.61
10476;BME280;26166;48.264;11.436;2022-07-22T09:18:59;96426.44;;;23.51;55.23
10476;BME280;26166;48.264;11.436;2022-07-22T09:21:59;96425.59;;;23.50;55.36
10476;BME280;26166;48.264;11.436;2022-07-22T09:28:20;96420.22;;;23.50;55.45
10476;BME280;26166;48.264;11.436;2022-07-22T09:31:25;96415.94;;;23.49;55.15
10476;BME280;26166;48.264;11.436;2022-07-22T09:34:26;96422.09;;;23.50;55.29
10476;BME280;26166;48.264;11.436;2022-07-22T09:37:27;96407.66;;;23.51;55.36
10476;BME280;26166;48.264;11.436;2022-07-22T09:40:28;96419.19;;;23.51;55.49
10476;BME280;26166;48.264;11.436;2022-07-22T09:43:29;96406.00;;;23.50;55.21
10476;BME280;26166;48.264;11.436;2022-07-22T09:46:35;96398.78;;;23.50;55.23
10476;BME280;26166;48.264;11.436;2022-07-22T09:49:37;96395.28;;;23.50;55.37
10476;BME280;26166;48.264;11.436;2022-07-22T09:52:39;96389.13;;;23.49;55.49
10476;BME280;26166;48.264;11.436;2022-07-22T09:55:40;96394.25;;;23.51;55.33
10476;BME280;26166;48.264;11.436;2022-07-22T09:58:41;96393.41;;;23.50;55.05
10476;BME280;26166;48.264;11.436;2022-07-22T10:01:41;96388.31;;;23.49;55.16
10476;BME280;26166;48.264;11.436;2022-07-22T10:04:42;96387.50;;;23.48;55.16
10476;BME280;26166;48.264;11.436;2022-07-22T10:07:46;96381.88;;;23.50;55.43
10476;BME280;26166;48.264;11.436;2022-07-22T10:10:46;96388.31;;;23.49;55.06
10476;BME280;26166;48.264;11.436;2022-07-22T10:13:47;96384.56;;;23.50;55.35
10476;BME280;26166;48.264;11.436;2022-07-22T10:16:48;96384.56;;;23.50;55.14
10476;BME280;26166;48.264;11.436;2022-07-22T10:19:48;96377.34;;;23.50;55.41
10476;BME280;26166;48.264;11.436;2022-07-22T10:25:55;96373.84;;;23.50;55.15
10476;BME280;26166;48.264;11.436;2022-07-22T10:28:56;96367.69;;;23.49;54.94
10476;BME280;26166;48.264;11.436;2022-07-22T10:35:20;96360.44;;;23.50;54.96
10476;BME280;26166;48.264;11.436;2022-07-22T10:38:21;96365.81;;;23.50;55.35
10476;BME280;26166;48.264;11.436;2022-07-22T10:41:30;96364.19;;;23.49;55.05
10476;BME280;26166;48.264;11.436;2022-07-22T10:44:48;96368.75;;;23.48;55.16
10476;BME280;26166;48.264;11.436;2022-07-22T10:47:52;96372.22;;;23.49;55.16
10476;BME280;26166;48.264;11.436;2022-07-22T10:50:54;96365.00;;;23.49;55.09
10476;BME280;26166;48.264;11.436;2022-07-22T10:53:58;96366.88;;;23.49;55.20
10476;BME280;26166;48.264;11.436;2022-07-22T10:57:00;96356.94;;;23.49;54.97
10476;BME280;26166;48.264;11.436;2022-07-22T11:00:00;96352.66;;;23.48;54.97
10476;BME280;26166;48.264;11.436;2022-07-22T11:03:00;96359.63;;;23.49;55.34
10476;BME280;26166;48.264;11.436;2022-07-22T11:06:17;96356.47;;;23.52;55.56
10476;BME280;26166;48.264;11.436;2022-07-22T11:09:18;96345.75;;;23.52;55.30
10476;BME280;26166;48.264;11.436;2022-07-22T11:12:18;96348.44;;;23.52;55.37
10476;BME280;26166;48.264;11.436;2022-07-22T11:15:18;96346.00;;;23.51;55.24
10476;BME280;26166;48.264;11.436;2022-07-22T11:18:24;96346.00;;;23.51;55.21
10476;BME280;26166;48.264;11.436;2022-07-22T11:21:26;96340.66;;;23.51;55.30
10476;BME280;26166;48.264;11.436;2022-07-22T11:24:26;96340.88;;;23.49;55.31
10476;BME280;26166;48.264;11.436;2022-07-22T11:27:27;96337.38;;;23.49;55.32
10476;BME280;26166;48.264;11.436;2022-07-22T11:30:27;96330.94;;;23.50;55.06
10476;BME280;26166;48.264;11.436;2022-07-22T11:33:27;96324.78;;;23.49;55.32
10476;BME280;26166;48.264;11.436;2022-07-22T11:36:28;96312.19;;;23.50;55.38
10476;BME280;26166;48.264;11.436;2022-07-22T11:39:31;96316.50;;;23.51;55.93
10476;BME280;26166;48.264;11.436;2022-07-22T11:42:31;96312.78;;;23.52;56.09
10476;BME280;26166;48.264;11.436;2022-07-22T11:45:32;96307.41;;;23.52;55.70
10476;BME280;26166;48.264;11.436;2022-07-22T11:48:32;96299.91;;;23.54;55.85
10476;BME280;26166;48.264;11.436;2022-07-22T11:51:33;96304.22;;;23.55;55.86
10476;BME280;26166;48.264;11.436;2022-07-22T11:54:33;96294.31;;;23.55;55.90
10476;BME280;26166;48.264;11.436;2022-07-22T11:57:39;96287.09;;;23.56;55.69
10476;BME280;26166;48.264;11.436;2022-07-22T12:00:46;96285.44;;;23.55;55.70
10476;BME280;26166;48.264;11.436;2022-07-22T12:03:47;96287.91;;;23.56;55.45
10476;BME280;26166;48.264;11.436;2022-07-22T12:06:48;96292.44;;;23.56;55.56
10476;BME280;26166;48.264;11.436;2022-07-22T12:09:49;96280.09;;;23.55;55.63
10476;BME280;26166;48.264;11.436;2022-07-22T12:12:49;96280.09;;;23.55;55.42
10476;BME280;26166;48.264;11.436;2022-07-22T12:15:49;96277.66;;;23.53;55.35
10476;BME280;26166;48.264;11.436;2022-07-22T12:18:50;96272.31;;;23.53;55.39
10476;BME280;26166;48.264;11.436;2022-07-22T12:24:59;96263.44;;;23.53;55.55
10476;BME280;26166;48.264;11.436;2022-07-22T12:28:01;96265.31;;;23.52;55.63
10476;BME280;26166;48.264;11.436;2022-07-22T12:31:01;96266.13;;;23.53;55.37
10476;BME280;26166;48.264;11.436;2022-07-22T12:34:02;96261.31;;;23.55;56.58
10476;BME280;26166;48.264;11.436;2022-07-22T12:37:44;96257.66;;;23.61;57.21
10476;BME280;26166;48.264;11.436;2022-07-22T12:40:25;96255.03;;;24.10;57.14
10476;BME280;26166;48.264;11.436;2022-07-22T12:43:26;96251.94;;;25.14;54.01
10476;BME280;26166;48.264;11.436;2022-07-22T12:46:26;96235.22;;;26.12;51.41
10476;BME280;26166;48.264;11.436;2022-07-22T12:49:26;96242.00;;;26.46;49.91
10476;BME280;26166;48.264;11.436;2022-07-22T12:52:27;96241.47;;;26.69;49.97
10476;BME280;26166;48.264;11.436;2022-07-22T12:55:27;96236.63;;;27.02;48.25
10476;BME280;26166;48.264;11.436;2022-07-22T12:58:28;96235.56;;;26.82;48.68
10476;BME280;26166;48.264;11.436;2022-07-22T13:01:29;96236.38;;;26.62;48.98
10476;BME280;26166;48.264;11.436;2022-07-22T13:04:30;96224.16;;;26.14;49.93
10476;BME280;26166;48.264;11.436;2022-07-22T13:07:30;96218.59;;;25.63;51.25
10476;BME280;26166;48.264;11.436;2022-07-22T13:10:30;96230.88;;;25.38;51.93
10476;BME280;26166;48.264;11.436;2022-07-22T13:13:30;96223.25;;;25.20;52.22
10476;BME280;26166;48.264;11.436;2022-07-22T13:16:31;96230.13;;;25.06;52.63
10476;BME280;26166;48.264;11.436;2022-07-22T13:19:32;96229.53;;;24.99;53.04
10476;BME280;26166;48.264;11.436;2022-07-22T13:22:32;96227.59;;;24.89;52.97
10476;BME280;26166;48.264;11.436;2022-07-22T13:25:33;96222.69;;;24.81;53.33
10476;BME280;26166;48.264;11.436;2022-07-22T13:28:34;96217.00;;;24.77;53.33
10476;BME280;26166;48.264;11.436;2022-07-22T13:31:35;96215.09;;;24.73;53.63
10476;BME280;26166;48.264;11.436;2022-07-22T13:34:35;96208.06;;;24.66;53.76
10476;BME280;26166;48.264;11.436;2022-07-22T13:37:35;96205.59;;;24.60;53.98
10476;BME280;26166;48.264;11.436;2022-07-22T13:40:35;96199.91;;;24.56;54.01
10476;BME280;26166;48.264;11.436;2022-07-22T13:43:36;96195.31;;;24.52;54.00
10476;BME280;26166;48.264;11.436;2022-07-22T13:46:36;96188.31;;;24.46;53.97
10476;BME280;26166;48.264;11.436;2022-07-22T13:49:37;96190.94;;;24.40;54.03
10476;BME280;26166;48.264;11.436;2022-07-22T13:52:37;96192.50;;;24.36;54.22
10476;BME280;26166;48.264;11.436;2022-07-22T13:55:40;96193.25;;;24.32;54.46
10476;BME280;26166;48.264;11.436;2022-07-22T13:58:40;96187.59;;;24.28;54.63
10476;BME280;26166;48.264;11.436;2022-07-22T14:01:41;96185.41;;;24.25;54.37
10476;BME280;26166;48.264;11.436;2022-07-22T14:04:41;96182.19;;;24.23;54.59
10476;BME280;26166;48.264;11.436;2022-07-22T14:07:42;96183.75;;;24.19;54.58
10476;BME280;26166;48.264;11.436;2022-07-22T14:10:43;96179.44;;;24.18;54.65
10476;BME280;26166;48.264;11.436;2022-07-22T14:13:43;96175.66;;;24.14;54.63
10476;BME280;26166;48.264;11.436;2022-07-22T14:16:43;96181.25;;;24.12;54.69
10476;BME280;26166;48.264;11.436;2022-07-22T14:19:43;96181.53;;;24.11;54.58
10476;BME280;26166;48.264;11.436;2022-07-22T14:22:44;96191.72;;;24.09;54.65
10476;BME280;26166;48.264;11.436;2022-07-22T14:25:44;96180.41;;;24.07;54.72
10476;BME280;26166;48.264;11.436;2022-07-22T14:28:44;96181.47;;;24.06;54.66
10476;BME280;26166;48.264;11.436;2022-07-22T14:31:44;96180.91;;;24.04;54.45
10476;BME280;26166;48.264;11.436;2022-07-22T14:34:46;96178.47;;;24.02;54.85
10476;BME280;26166;48.264;11.436;2022-07-22T14:37:46;96181.44;;;24.01;54.88
10476;BME280;26166;48.264;11.436;2022-07-22T14:40:46;96183.81;;;23.97;54.59
10476;BME280;26166;48.264;11.436;2022-07-22T14:43:46;96185.69;;;23.97;54.69
10476;BME280;26166;48.264;11.436;2022-07-22T14:46:47;96173.34;;;23.96;55.25
10476;BME280;26166;48.264;11.436;2022-07-22T14:49:47;96183.00;;;23.97;55.22
10476;BME280;26166;48.264;11.436;2022-07-22T14:52:47;96174.16;;;23.96;55.00
10476;BME280;26166;48.264;11.436;2022-07-22T14:55:47;96177.63;;;23.97;55.08
10476;BME280;26166;48.264;11.436;2022-07-22T14:58:47;96177.06;;;23.95;55.19
10476;BME280;26166;48.264;11.436;2022-07-22T15:01:47;96173.84;;;23.92;55.35
10476;BME280;26166;48.264;11.436;2022-07-22T15:04:48;96171.16;;;23.92;55.34
10476;BME280;26166;48.264;11.436;2022-07-22T15:07:48;96170.34;;;23.92;55.15
10476;BME280;26166;48.264;11.436;2022-07-22T15:10:48;96171.41;;;23.91;55.30
10476;BME280;26166;48.264;11.436;2022-07-22T15:13:48;96171.66;;;23.89;55.19
10476;BME280;26166;48.264;11.436;2022-07-22T15:16:50;96167.34;;;23.88;55.50
10476;BME280;26166;48.264;11.436;2022-07-22T15:19:50;96169.22;;;23.88;55.22
10476;BME280;26166;48.264;11.436;2022-07-22T15:22:50;96163.28;;;23.86;55.30
10476;BME280;26166;48.264;11.436;2022-07-22T15:25:50;96158.19;;;23.84;55.30
10476;BME280;26166;48.264;11.436;2022-07-22T15:28:51;96164.63;;;23.83;55.49
10476;BME280;26166;48.264;11.436;2022-07-22T15:31:53;96161.38;;;23.81;55.51
10476;BME280;26166;48.264;11.436;2022-07-22T15:34:53;96154.38;;;23.80;55.53
10476;BME280;26166;48.264;11.436;2022-07-22T15:37:53;96144.72;;;23.79;55.35
10476;BME280;26166;48.264;11.436;2022-07-22T15:40:53;96144.16;;;23.77;55.63
10476;BME280;26166;48.264;11.436;2022-07-22T15:43:54;96147.91;;;23.76;55.59
10476;BME280;26166;48.264;11.436;2022-07-22T15:46:54;96141.75;;;23.76;55.54
10476;BME280;26166;48.264;11.436;2022-07-22T15:49:54;96133.97;;;23.74;55.68
10476;BME280;26166;48.264;11.436;2022-07-22T15:52:55;96142.00;;;23.74;55.62
10476;BME280;26166;48.264;11.436;2022-07-22T15:55:55;96135.03;;;23.73;55.64
10476;BME280;26166;48.264;11.436;2022-07-22T15:58:55;96126.97;;;23.73;55.63